createdAt,value
2022-10-05T00:00:23.400Z,17.40
2022-10-05T00:05:48.763Z,16.30
2022-10-05T00:10:54.447Z,16.10
2022-10-05T00:16:03.425Z,17.90
2022-10-05T00:21:13.865Z,16.90
2022-10-05T00:26:20.742Z,17.40
2022-10-05T00:31:27.128Z,17.80
2022-10-05T00:36:32.472Z,18.90
2022-10-05T00:41:42.937Z,16.80
2022-10-05T00:46:52.521Z,17.30
2022-10-05T00:52:03.975Z,17.30
2022-10-05T00:57:17.493Z,19.00
2022-10-05T01:02:26.598Z,17.70
2022-10-05T01:07:37.106Z,17.20
2022-10-05T01:12:47.140Z,16.20
2022-10-05T01:17:54.854Z,16.20
2022-10-05T01:23:07.689Z,16.10
2022-10-05T01:28:16.501Z,17.50
2022-10-05T01:33:24.439Z,18.20
2022-10-05T01:38:38.585Z,16.70
2022-10-05T01:43:58.366Z,18.80
2022-10-05T01:49:17.090Z,18.30
2022-10-05T01:54:34.728Z,18.90
2022-10-05T01:59:54.744Z,18.30
2022-10-05T02:05:14.262Z,19.40
2022-10-05T02:10:30.708Z,17.50
2022-10-05T02:15:42.362Z,17.60
2022-10-05T02:20:48.979Z,18.20
2022-10-05T02:25:56.056Z,17.00
2022-10-05T02:31:03.099Z,17.20
2022-10-05T02:36:12.977Z,18.00
2022-10-05T02:41:24.825Z,17.30
2022-10-05T02:46:32.853Z,16.20
2022-10-05T02:51:42.174Z,15.80
2022-10-05T02:56:49.936Z,16.10
2022-10-05T03:01:58.322Z,16.40
2022-10-05T03:07:08.611Z,15.50
2022-10-05T03:12:21.790Z,15.10
2022-10-05T03:17:30.132Z,16.60
2022-10-05T03:22:39.850Z,15.20
2022-10-05T03:27:48.881Z,14.70
2022-10-05T03:32:59.838Z,14.80
2022-10-05T03:38:09.331Z,15.30
2022-10-05T03:43:31.225Z,14.20
2022-10-05T03:48:40.711Z,15.60
2022-10-05T03:53:48.658Z,12.80
2022-10-05T03:58:57.466Z,13.10
2022-10-05T04:04:05.252Z,14.10
2022-10-05T04:09:13.191Z,13.00
2022-10-05T04:14:21.076Z,11.60
2022-10-05T04:19:31.381Z,10.40
2022-10-05T04:24:38.877Z,13.00
2022-10-05T04:29:48.360Z,12.20
2022-10-05T04:35:07.934Z,11.70
2022-10-05T04:40:22.501Z,12.40
2022-10-05T04:45:32.136Z,11.20
2022-10-05T04:50:50.742Z,10.90
2022-10-05T04:55:59.043Z,11.20
2022-10-05T05:01:13.381Z,11.80
2022-10-05T05:06:25.925Z,10.40
2022-10-05T05:11:35.679Z,12.00
2022-10-05T05:16:41.570Z,11.70
2022-10-05T05:21:53.799Z,11.10
2022-10-05T05:27:09.974Z,11.50
2022-10-05T05:32:19.874Z,11.00
2022-10-05T05:37:30.425Z,11.10
2022-10-05T05:42:41.127Z,11.50
2022-10-05T05:47:52.137Z,10.60
2022-10-05T05:53:00.004Z,11.30
2022-10-05T05:58:11.211Z,12.20
2022-10-05T06:03:19.474Z,12.20
2022-10-05T06:08:29.092Z,11.70
2022-10-05T06:13:41.610Z,12.10
2022-10-05T06:18:49.166Z,11.00
2022-10-05T06:23:58.124Z,10.90
2022-10-05T06:29:06.519Z,9.70
2022-10-05T06:34:21.024Z,9.30
2022-10-05T06:39:35.617Z,9.40
2022-10-05T06:44:44.920Z,10.60
2022-10-05T06:50:31.179Z,11.40
2022-10-05T06:55:57.802Z,11.10
2022-10-05T07:01:10.750Z,11.30
2022-10-05T07:06:18.048Z,10.70
2022-10-05T07:11:31.645Z,9.10
2022-10-05T07:16:40.467Z,9.30
2022-10-05T07:21:54.175Z,8.40
2022-10-05T07:27:05.109Z,8.20
2022-10-05T07:32:15.213Z,7.40
2022-10-05T07:37:44.890Z,7.80
2022-10-05T07:42:59.982Z,7.60
2022-10-05T07:48:08.717Z,6.30
2022-10-05T07:53:16.879Z,6.40
2022-10-05T07:58:24.663Z,5.50
2022-10-05T08:03:36.213Z,5.20
2022-10-05T08:08:46.550Z,5.50
2022-10-05T08:13:54.121Z,4.60
2022-10-05T08:19:02.546Z,5.00
2022-10-05T08:24:13.222Z,4.50
2022-10-05T08:29:22.872Z,4.90
2022-10-05T08:34:31.622Z,5.20
2022-10-05T08:39:38.979Z,4.10
2022-10-05T08:45:03.794Z,3.70
2022-10-05T08:50:26.414Z,4.10
2022-10-05T08:55:35.179Z,4.00
2022-10-05T09:00:45.728Z,3.40
2022-10-05T09:06:04.470Z,3.60
2022-10-05T09:11:13.890Z,3.00
2022-10-05T09:16:25.205Z,3.60
2022-10-05T09:21:40.148Z,3.60
2022-10-05T09:26:51.422Z,3.60
2022-10-05T09:32:13.011Z,3.30
2022-10-05T09:37:35.117Z,2.90
2022-10-05T09:42:54.064Z,3.20
2022-10-05T09:48:18.948Z,2.90
2022-10-05T09:53:40.990Z,2.20
2022-10-05T09:58:58.649Z,2.20
2022-10-05T10:04:36.018Z,2.30
2022-10-05T10:09:47.724Z,1.90
2022-10-05T10:15:06.430Z,1.80
2022-10-05T10:20:23.364Z,2.50
2022-10-05T10:25:57.336Z,2.40
2022-10-05T10:31:09.555Z,2.20
2022-10-05T10:36:19.377Z,1.70
2022-10-05T10:41:41.342Z,1.80
2022-10-05T10:46:52.722Z,1.90
2022-10-05T10:52:05.132Z,2.00
2022-10-05T10:57:13.035Z,2.10
2022-10-05T11:02:27.330Z,2.00
2022-10-05T11:07:50.056Z,1.90
2022-10-05T11:13:20.243Z,1.60
2022-10-05T11:18:30.761Z,1.60
2022-10-05T11:23:56.162Z,1.50
2022-10-05T11:29:11.422Z,1.90
2022-10-05T11:34:30.272Z,1.70
2022-10-05T11:39:44.490Z,1.40
2022-10-05T11:45:08.324Z,1.70
2022-10-05T11:50:19.253Z,1.70
2022-10-05T11:55:28.769Z,1.70
2022-10-05T12:00:37.490Z,1.80
2022-10-05T12:05:47.426Z,2.00
2022-10-05T12:10:58.541Z,1.90
2022-10-05T12:16:07.167Z,1.60
2022-10-05T12:21:16.760Z,2.00
2022-10-05T12:26:25.834Z,1.60
2022-10-05T12:31:36.697Z,1.60
2022-10-05T12:37:03.704Z,1.40
2022-10-05T12:42:15.758Z,1.00
2022-10-05T12:47:26.674Z,1.70
2022-10-05T12:52:43.441Z,2.00
2022-10-05T12:57:53.143Z,1.30
2022-10-05T13:03:01.222Z,1.30
2022-10-05T13:08:20.930Z,1.40
2022-10-05T13:13:35.467Z,1.70
2022-10-05T13:18:49.346Z,1.60
2022-10-05T13:23:59.653Z,1.20
2022-10-05T13:29:11.852Z,1.40
2022-10-05T13:34:22.969Z,1.80
2022-10-05T13:39:35.032Z,1.20
2022-10-05T13:44:44.204Z,1.20
2022-10-05T13:49:51.628Z,2.00
2022-10-05T13:55:01.322Z,1.30
2022-10-05T14:00:14.518Z,1.80
2022-10-05T14:05:21.568Z,1.30
2022-10-05T14:10:37.740Z,1.70
2022-10-05T14:15:43.067Z,1.60
2022-10-05T14:21:04.528Z,2.20
2022-10-05T14:26:18.008Z,2.20
2022-10-05T14:31:30.386Z,2.10
2022-10-05T14:36:39.489Z,1.90
2022-10-05T14:41:47.602Z,1.60
2022-10-05T14:46:56.388Z,2.30
2022-10-05T14:52:01.743Z,2.40
2022-10-05T14:57:11.295Z,2.50
2022-10-05T15:02:29.835Z,1.80
2022-10-05T15:07:39.591Z,1.40
2022-10-05T15:12:53.129Z,2.50
2022-10-05T15:18:01.418Z,1.70
2022-10-05T15:23:14.252Z,1.40
2022-10-05T15:28:25.730Z,1.40
2022-10-05T15:33:35.539Z,2.20
2022-10-05T15:38:47.571Z,1.90
2022-10-05T15:43:59.649Z,2.40
2022-10-05T15:49:14.832Z,2.00
2022-10-05T15:54:44.203Z,2.50
2022-10-05T16:05:02.415Z,3.10
2022-10-05T16:10:14.923Z,2.50
2022-10-05T16:15:26.463Z,2.80
2022-10-05T16:20:41.247Z,2.80
2022-10-05T16:25:51.966Z,8.50
2022-10-05T16:31:01.827Z,12.40
2022-10-05T16:36:16.335Z,7.70
2022-10-05T16:41:28.207Z,7.20
2022-10-05T16:46:37.734Z,5.80
2022-10-05T16:51:46.374Z,7.60
2022-10-05T16:56:53.687Z,7.30
2022-10-05T17:02:02.227Z,15.20
2022-10-05T17:07:17.277Z,18.20
2022-10-05T17:12:38.077Z,14.50
2022-10-05T17:18:06.420Z,50.70
2022-10-05T17:23:24.137Z,32.90
2022-10-05T17:28:41.155Z,15.50
2022-10-05T17:34:03.079Z,19.50
2022-10-05T17:39:14.229Z,7.20
2022-10-05T17:44:26.629Z,30.70
2022-10-05T17:50:08.621Z,54.00
2022-10-05T17:55:28.252Z,28.80
2022-10-05T18:01:04.355Z,12.70
2022-10-05T18:06:38.414Z,12.40
2022-10-05T18:11:44.305Z,9.10
2022-10-05T18:17:00.179Z,13.20
2022-10-05T18:22:11.107Z,24.40
2022-10-05T18:27:28.584Z,23.80
2022-10-05T18:32:54.715Z,22.80
2022-10-05T18:38:03.977Z,17.20
2022-10-05T18:43:18.376Z,65.90
2022-10-05T18:48:28.181Z,43.20
2022-10-05T18:53:40.229Z,17.80
2022-10-05T18:58:52.127Z,14.00
2022-10-05T19:04:05.962Z,12.30
2022-10-05T19:09:20.968Z,7.90
2022-10-05T19:14:32.325Z,9.10
2022-10-05T19:19:51.776Z,9.10
2022-10-05T19:25:04.600Z,9.50
2022-10-05T19:30:18.879Z,9.70
2022-10-05T19:35:28.222Z,10.60
2022-10-05T19:40:38.938Z,10.30
2022-10-05T19:45:46.879Z,11.50
2022-10-05T19:50:57.426Z,11.50
2022-10-05T19:56:20.562Z,11.40
2022-10-05T20:01:27.490Z,10.00
2022-10-05T20:06:32.991Z,10.20
2022-10-05T20:11:49.580Z,10.10
2022-10-05T20:17:25.666Z,10.80
2022-10-05T20:22:32.818Z,9.10
2022-10-05T20:27:43.853Z,9.50
2022-10-05T20:32:52.520Z,9.90
2022-10-05T20:37:59.458Z,9.80
2022-10-05T20:43:04.903Z,9.60
2022-10-05T20:48:10.303Z,8.60
2022-10-05T20:53:15.611Z,8.90
2022-10-05T20:58:21.181Z,9.00
2022-10-05T21:03:27.349Z,10.00
2022-10-05T21:08:32.551Z,10.30
2022-10-05T21:13:45.331Z,12.70
2022-10-05T21:18:50.726Z,12.10
2022-10-05T21:23:55.937Z,15.30
2022-10-05T21:29:02.353Z,13.30
2022-10-05T21:34:07.732Z,12.40
2022-10-05T21:39:12.935Z,18.10
2022-10-05T21:44:18.312Z,22.40
2022-10-05T21:49:24.469Z,24.80
2022-10-05T21:54:30.574Z,18.20
2022-10-05T21:59:37.611Z,16.30
2022-10-05T22:04:43.117Z,12.40
2022-10-05T22:09:49.395Z,12.30
2022-10-05T22:14:54.975Z,11.90
2022-10-05T22:20:00.432Z,11.40
2022-10-05T22:25:06.291Z,12.40
2022-10-05T22:30:14.882Z,12.00
2022-10-05T22:35:20.217Z,12.30
2022-10-05T22:40:25.615Z,10.60
2022-10-05T22:45:32.760Z,11.00
2022-10-05T22:50:38.226Z,9.80
2022-10-05T22:55:43.581Z,10.20
2022-10-05T23:00:58.126Z,11.80
2022-10-05T23:06:05.487Z,11.40
2022-10-05T23:11:11.729Z,9.60
2022-10-05T23:16:17.745Z,9.10
2022-10-05T23:21:23.935Z,9.70
2022-10-05T23:26:29.171Z,10.90
2022-10-05T23:31:36.613Z,13.30
2022-10-05T23:36:41.932Z,12.70
2022-10-05T23:41:47.286Z,10.50
2022-10-05T23:46:52.920Z,9.70
2022-10-05T23:51:58.261Z,9.70
2022-10-05T23:57:03.622Z,8.50
